Time;durP1;ratioP1;P1;durP2;ratioP2;P2;SDS_P1;SDS_P2;PMS_P1;PMS_P2;Temp;Humidity;BMP_temperature;BMP_pressure;BME280_temperature;BME280_humidity;BME280_pressure;Samples;Min_cycle;Max_cycle;Signal;HPM_P1;HPM_P2
2022/09/20 00:01:27;;;;;;;3.63;3.07;;;;;;;6.61;100.00;96537.06;6166237;23;20763;-75
2022/09/20 00:03:56;;;;;;;3.00;2.77;;;;;;;6.85;100.00;96563.09;6160394;23;20487;-76
2022/09/20 00:06:26;;;;;;;3.57;2.80;;;;;;;6.79;100.00;96562.41;6127833;23;20454;-76
2022/09/20 00:08:53;;;;;;;3.20;2.83;;;;;;;6.57;100.00;96540.59;6128268;23;20412;-76
2022/09/20 00:11:23;;;;;;;5.23;3.07;;;;;;;6.81;100.00;96564.75;6154173;23;20383;-77
2022/09/20 00:13:53;;;;;;;3.13;2.93;;;;;;;6.30;100.00;96479.16;6103558;23;20958;-76
2022/09/20 00:16:32;;;;;;;2.73;2.53;;;;;;;6.82;100.00;96559.22;6154147;23;20431;-76
2022/09/20 00:19:02;;;;;;;5.40;3.30;;;;;;;6.93;100.00;96556.34;6154151;23;20399;-76
2022/09/20 00:21:31;;;;;;;4.17;2.80;;;;;;;6.99;100.00;96555.94;6103668;23;20875;-76
2022/09/20 00:23:58;;;;;;;5.53;3.50;;;;;;;6.81;100.00;96522.69;6128200;23;20395;-76
2022/09/20 00:26:26;;;;;;;4.10;3.40;;;;;;;6.75;100.00;96523.91;6127756;23;20526;-76
2022/09/20 00:28:54;;;;;;;6.50;3.87;;;;;;;7.03;100.00;96564.00;6127788;23;20403;-75
2022/09/20 00:31:21;;;;;;;4.27;3.50;;;;;;;6.73;100.00;96523.41;6154189;23;20504;-76
2022/09/20 00:36:33;;;;;;;10.73;3.47;;;;;;;6.68;100.00;96521.69;6127766;23;20420;-75
2022/09/20 00:39:01;;;;;;;3.87;3.30;;;;;;;6.62;100.00;96501.84;6103503;23;20430;-75
2022/09/20 00:41:30;;;;;;;3.40;3.10;;;;;;;7.08;100.00;96556.03;6103642;23;20408;-76
2022/09/20 00:43:57;;;;;;;4.67;4.23;;;;;;;6.85;100.00;96521.03;6103540;23;20404;-76
2022/09/20 00:46:33;;;;;;;3.90;3.60;;;;;;;6.96;100.00;96545.25;6153887;23;20424;-76
2022/09/20 00:49:20;;;;;;;4.10;3.70;;;;;;;6.67;100.00;96522.72;6127709;23;20404;-75
2022/09/20 00:51:51;;;;;;;3.27;2.97;;;;;;;6.91;100.00;96547.97;6128189;23;20368;-76
2022/09/20 00:54:19;;;;;;;3.53;3.27;;;;;;;6.95;100.00;96549.75;6127615;23;20396;-75
2022/09/20 00:56:47;;;;;;;3.90;3.60;;;;;;;6.79;100.00;96522.22;6127466;23;20422;-76
2022/09/20 00:59:25;;;;;;;3.77;3.47;;;;;;;6.88;100.00;96525.69;6127772;23;20387;-75
2022/09/20 01:02:01;;;;;;;4.17;2.70;;;;;;;6.81;100.00;96517.44;6153762;23;20700;-76
2022/09/20 01:04:29;;;;;;;3.97;3.27;;;;;;;6.99;100.00;96537.56;6127634;23;20395;-76
2022/09/20 01:07:01;;;;;;;3.10;2.90;;;;;;;6.78;100.00;96504.91;6103123;23;20940;-76
2022/09/20 01:09:27;;;;;;;3.00;2.70;;;;;;;6.87;100.00;96539.16;6103381;23;20396;-76
2022/09/20 01:11:57;;;;;;;7.03;3.87;;;;;;;6.78;100.00;96547.72;6153574;23;20388;-75
2022/09/20 01:14:25;;;;;;;23.70;3.80;;;;;;;6.46;100.00;96506.63;6127733;23;20697;-75
2022/09/20 01:16:55;;;;;;;6.93;4.47;;;;;;;6.67;100.00;96540.34;6127154;23;20827;-76
2022/09/20 01:19:28;;;;;;;5.53;3.63;;;;;;;7.00;100.00;96544.34;6127551;23;20384;-77
2022/09/20 01:21:55;;;;;;;3.63;3.33;;;;;;;6.96;100.00;96538.16;6127100;23;20407;-76
2022/09/20 01:24:34;;;;;;;4.87;3.70;;;;;;;6.93;100.00;96522.94;6127736;23;20414;-75
2022/09/20 01:27:34;;;;;;;17.03;3.80;;;;;;;7.04;100.00;96542.69;6153473;23;20427;-75
2022/09/20 01:30:07;;;;;;;5.03;3.43;;;;;;;6.96;100.00;96547.88;6127365;23;20403;-75
2022/09/20 01:32:39;;;;;;;4.30;3.50;;;;;;;6.85;100.00;96542.06;6127625;23;20372;-76
2022/09/20 01:35:08;;;;;;;4.80;3.73;;;;;;;6.53;100.00;96509.63;6153444;23;20388;-75
2022/09/20 01:37:58;;;;;;;3.70;3.40;;;;;;;6.81;100.00;96547.16;6127106;23;20423;-75
2022/09/20 01:40:51;;;;;;;4.37;3.97;;;;;;;6.89;100.00;96542.25;6127466;23;20512;-76
2022/09/20 01:43:44;;;;;;;3.60;3.30;;;;;;;6.62;100.00;96522.06;6111872;23;20511;-76
2022/09/20 01:46:30;;;;;;;3.20;2.90;;;;;;;6.81;100.00;96539.25;6087684;23;20427;-75
2022/09/20 01:49:27;;;;;;;5.03;3.80;;;;;;;7.02;100.00;96538.81;6127730;23;20843;-75
2022/09/20 01:52:16;;;;;;;4.90;3.93;;;;;;;7.13;100.00;96536.72;6103030;23;20404;-75
2022/09/20 01:55:10;;;;;;;4.23;3.83;;;;;;;7.07;100.00;96528.16;6153467;23;20910;-75
2022/09/20 01:57:39;;;;;;;4.57;3.50;;;;;;;7.20;100.00;96553.63;6127207;23;20506;-75
2022/09/20 02:00:12;;;;;;;3.37;3.07;;;;;;;7.22;100.00;96555.97;6153356;23;20384;-75
2022/09/20 02:03:16;;;;;;;3.23;2.73;;;;;;;7.19;100.00;96559.19;6103164;23;20399;-75
2022/09/20 02:06:03;;;;;;;3.60;3.30;;;;;;;7.11;100.00;96545.69;6127258;23;20805;-75
2022/09/20 02:08:33;;;;;;;3.40;3.10;;;;;;;7.10;100.00;96554.66;6153240;23;20792;-75
2022/09/20 02:11:11;;;;;;;4.23;3.93;;;;;;;6.80;100.00;96529.03;6103055;23;20897;-75
2022/09/20 02:13:38;;;;;;;4.70;4.27;;;;;;;6.96;100.00;96556.56;6103505;23;20438;-75
2022/09/20 02:16:50;;;;;;;4.50;4.17;;;;;;;6.68;100.00;96536.69;6137166;23;20400;-75
2022/09/20 02:19:26;;;;;;;3.40;3.10;;;;;;;6.92;100.00;96560.03;6094882;23;20407;-76
2022/09/20 02:22:09;;;;;;;3.43;3.20;;;;;;;7.06;100.00;96558.94;6138705;23;20398;-76
2022/09/20 02:24:48;;;;;;;3.70;3.13;;;;;;;7.17;100.00;96556.84;6139761;23;20809;-75
2022/09/20 02:27:42;;;;;;;5.90;3.40;;;;;;;7.16;100.00;96554.53;6138135;23;20499;-75
2022/09/20 02:30:25;;;;;;;4.07;3.77;;;;;;;7.00;100.00;96539.09;6113104;23;20808;-76
2022/09/20 02:32:52;;;;;;;5.37;4.37;;;;;;;7.14;100.00;96561.94;6158525;23;20778;-76
2022/09/20 02:35:41;;;;;;;3.40;3.10;;;;;;;7.09;100.00;96557.59;6127219;23;20816;-76
2022/09/20 02:38:50;;;;;;;11.13;4.47;;;;;;;7.02;100.00;96557.19;6127085;23;20403;-76
2022/09/20 02:41:35;;;;;;;9.40;4.10;;;;;;;7.00;100.00;96554.88;6126983;23;20422;-76
2022/09/20 02:44:14;;;;;;;4.40;3.30;;;;;;;7.06;100.00;96551.03;6102688;23;20396;-76
2022/09/20 02:46:53;;;;;;;6.70;4.13;;;;;;;7.02;100.00;96557.97;6152848;23;20410;-76
2022/09/20 02:49:53;;;;;;;4.10;3.70;;;;;;;6.77;100.00;96505.97;6152859;23;20460;-75
2022/09/20 02:52:41;;;;;;;9.43;3.87;;;;;;;7.12;100.00;96567.50;6102608;23;20438;-76
2022/09/20 02:55:13;;;;;;;4.23;3.13;;;;;;;6.39;100.00;96463.47;6126972;23;20415;-76
2022/09/20 02:57:52;;;;;;;4.70;3.40;;;;;;;7.16;100.00;96565.03;6103399;23;20420;-76
2022/09/20 03:00:27;;;;;;;6.20;3.30;;;;;;;7.17;100.00;96566.59;6128732;23;20392;-76
2022/09/20 03:03:30;;;;;;;5.17;4.07;;;;;;;7.14;100.00;96567.19;6154861;23;20792;-76
2022/09/20 03:06:01;;;;;;;4.30;3.57;;;;;;;7.13;100.00;96568.28;6104311;23;20390;-75
2022/09/20 03:09:07;;;;;;;3.83;3.17;;;;;;;7.07;100.00;96567.59;6128966;23;20442;-76
2022/09/20 03:11:56;;;;;;;3.50;3.30;;;;;;;6.78;100.00;96539.84;6128751;23;20490;-76
2022/09/20 03:14:29;;;;;;;4.80;3.97;;;;;;;6.68;100.00;96526.94;6104384;23;20391;-76
2022/09/20 03:17:15;;;;;;;4.23;3.93;;;;;;;6.95;100.00;96570.78;6154649;23;20417;-76
2022/09/20 03:20:07;;;;;;;4.13;3.70;;;;;;;6.76;100.00;96523.59;6104807;23;20400;-76
2022/09/20 03:22:39;;;;;;;3.93;3.63;;;;;;;7.13;100.00;96563.00;6129229;23;20855;-76
2022/09/20 03:25:27;;;;;;;4.30;3.80;;;;;;;7.18;100.00;96563.66;6129575;23;20400;-76
2022/09/20 03:28:16;;;;;;;4.77;3.47;;;;;;;7.19;100.00;96578.38;6155025;23;20424;-76
2022/09/20 03:30:52;;;;;;;3.53;3.23;;;;;;;7.22;100.00;96567.28;6155316;23;20459;-76
2022/09/20 03:33:21;;;;;;;3.40;3.10;;;;;;;7.09;100.00;96571.50;6129077;23;20454;-76
2022/09/20 03:36:22;;;;;;;3.20;2.90;;;;;;;6.86;100.00;96537.59;6129103;23;20443;-76
2022/09/20 03:39:16;;;;;;;4.23;3.90;;;;;;;7.05;100.00;96569.75;6144114;23;20408;-77
2022/09/20 03:42:05;;;;;;;3.90;3.60;;;;;;;6.96;100.00;96566.28;6155853;23;20415;-77
2022/09/20 03:45:13;;;;;;;5.13;3.30;;;;;;;6.77;100.00;96559.31;6129155;23;20479;-77
2022/09/20 03:47:58;;;;;;;3.20;3.00;;;;;;;6.82;100.00;96566.31;6128857;23;20427;-77
2022/09/20 03:50:31;;;;;;;4.73;3.20;;;;;;;6.88;100.00;96569.59;6128683;23;20402;-77
2022/09/20 03:53:35;;;;;;;4.77;3.77;;;;;;;6.99;100.00;96570.94;6155636;23;20495;-77
2022/09/20 03:56:20;;;;;;;5.67;3.23;;;;;;;7.08;100.00;96567.31;6154883;23;20467;-77
2022/09/20 03:58:53;;;;;;;7.43;3.20;;;;;;;7.06;100.00;96566.81;6128962;23;20742;-77
2022/09/20 04:01:29;;;;;;;3.27;2.97;;;;;;;7.16;100.00;96565.03;6128944;23;20402;-77
2022/09/20 04:04:03;;;;;;;5.00;3.07;;;;;;;7.04;100.00;96566.34;6128957;23;20384;-77
2022/09/20 04:06:36;;;;;;;4.00;3.60;;;;;;;7.02;100.00;96573.75;6128767;23;20901;-77
2022/09/20 04:09:36;;;;;;;3.70;3.10;;;;;;;6.98;100.00;96572.78;6128469;23;20812;-77
2022/09/20 04:12:21;;;;;;;6.40;3.17;;;;;;;6.63;100.00;96526.25;6129294;23;20369;-77
2022/09/20 04:15:22;;;;;;;4.60;2.60;;;;;;;6.69;100.00;96560.03;6129015;23;20753;-77
2022/09/20 04:17:57;;;;;;;5.23;2.97;;;;;;;6.62;100.00;96578.03;6128818;23;20510;-77
2022/09/20 04:20:45;;;;;;;5.90;3.20;;;;;;;6.68;100.00;96576.84;6129004;23;20398;-77
2022/09/20 04:23:29;;;;;;;4.40;2.57;;;;;;;6.43;100.00;96519.59;6155238;23;20455;-77
2022/09/20 04:25:59;;;;;;;4.37;2.83;;;;;;;6.25;100.00;96523.88;6155312;23;20368;-77
2022/09/20 04:28:29;;;;;;;7.17;2.63;;;;;;;6.46;100.00;96556.53;6154595;23;20499;-77
2022/09/20 04:31:05;;;;;;;5.03;2.77;;;;;;;6.33;100.00;96557.31;6128907;23;20377;-77
2022/09/20 04:33:43;;;;;;;13.40;4.10;;;;;;;6.56;100.00;96587.09;6104266;23;20391;-77
2022/09/20 04:36:34;;;;;;;5.10;2.90;;;;;;;6.49;100.00;96578.81;6128870;23;20400;-77
2022/09/20 04:39:33;;;;;;;2.93;2.33;;;;;;;6.50;100.00;96567.22;6116671;23;20477;-76
2022/09/20 04:42:28;;;;;;;5.30;3.50;;;;;;;6.67;100.00;96590.25;6153564;23;20404;-76
2022/09/20 04:45:15;;;;;;;5.00;2.70;;;;;;;6.56;100.00;96578.44;6151667;23;20439;-76
2022/09/20 04:48:12;;;;;;;3.13;2.80;;;;;;;6.67;100.00;96585.78;6149328;23;20423;-76
2022/09/20 04:51:09;;;;;;;2.50;2.30;;;;;;;6.60;100.00;96558.38;6122185;23;20400;-76
2022/09/20 04:54:14;;;;;;;4.63;2.60;;;;;;;6.85;100.00;96596.47;6129524;23;20391;-77
2022/09/20 04:57:04;;;;;;;4.17;2.80;;;;;;;6.80;100.00;96584.97;6127978;23;20755;-77
2022/09/20 05:00:01;;;;;;;7.47;3.13;;;;;;;6.76;100.00;96593.75;6128930;23;20461;-77
2022/09/20 05:02:47;;;;;;;4.07;3.17;;;;;;;6.65;100.00;96598.44;6155533;23;20411;-77
2022/09/20 05:05:16;;;;;;;3.00;2.70;;;;;;;6.79;100.00;96595.78;6128708;23;20427;-77
2022/09/20 05:08:20;;;;;;;3.00;2.70;;;;;;;6.97;100.00;96602.00;6104927;23;21010;-77
2022/09/20 05:11:07;;;;;;;3.63;3.20;;;;;;;6.81;100.00;96604.16;6130591;23;20494;-77
2022/09/20 05:13:45;;;;;;;8.17;3.97;;;;;;;6.38;100.00;96551.19;6157226;23;20423;-77
2022/09/20 05:16:26;;;;;;;4.77;3.10;;;;;;;6.65;100.00;96585.31;6106138;23;20547;-77
2022/09/20 05:19:19;;;;;;;4.97;3.60;;;;;;;6.66;100.00;96586.09;6105626;23;20400;-77
2022/09/20 05:22:05;;;;;;;9.23;3.57;;;;;;;6.49;100.00;96597.19;6073926;23;20886;-77
2022/09/20 05:25:10;;;;;;;8.80;4.87;;;;;;;6.58;100.00;96618.31;6107072;23;20424;-77
2022/09/20 05:28:05;;;;;;;3.53;2.90;;;;;;;6.55;100.00;96609.19;6131938;23;21016;-77
2022/09/20 05:30:45;;;;;;;9.90;4.27;;;;;;;6.55;100.00;96590.78;6141370;23;20388;-77
2022/09/20 05:33:36;;;;;;;4.30;3.90;;;;;;;6.58;100.00;96611.22;6161722;23;20378;-77
2022/09/20 05:36:13;;;;;;;4.70;4.10;;;;;;;6.67;100.00;96624.41;6128597;23;20364;-77
2022/09/20 05:38:51;;;;;;;7.40;3.80;;;;;;;6.57;100.00;96625.41;6128705;23;20455;-77
2022/09/20 05:41:33;;;;;;;7.93;3.83;;;;;;;6.35;100.00;96596.41;6104510;23;20801;-77
2022/09/20 05:44:18;;;;;;;6.67;5.70;;;;;;;6.64;100.00;96622.38;6128708;23;20375;-77
2022/09/20 05:47:13;;;;;;;7.60;3.90;;;;;;;6.77;100.00;96622.38;6112117;23;20518;-79
2022/09/20 05:50:03;;;;;;;7.40;4.40;;;;;;;6.78;100.00;96623.16;6141930;23;20407;-79
2022/09/20 05:52:51;;;;;;;5.57;3.93;;;;;;;6.76;100.00;96617.41;6106106;23;20410;-78
2022/09/20 05:55:45;;;;;;;8.97;3.80;;;;;;;6.91;100.00;96642.59;6118361;23;20403;-78
2022/09/20 05:58:27;;;;;;;6.10;3.00;;;;;;;6.95;100.00;96638.34;6143471;23;20928;-79
2022/09/20 06:00:59;;;;;;;5.60;3.00;;;;;;;6.75;100.00;96606.13;6170188;23;20400;-79
2022/09/20 06:03:54;;;;;;;7.93;4.40;;;;;;;6.92;100.00;96637.03;6117593;23;20459;-79
2022/09/20 06:06:45;;;;;;;4.13;2.20;;;;;;;6.95;100.00;96638.34;6131576;23;20407;-78
2022/09/20 06:09:34;;;;;;;5.50;2.60;;;;;;;7.00;100.00;96643.47;6107872;23;20510;-78
2022/09/20 06:12:30;;;;;;;9.40;3.10;;;;;;;7.05;100.00;96638.88;6158292;23;20451;-78
2022/09/20 06:15:03;;;;;;;3.50;2.20;;;;;;;6.93;100.00;96606.28;6161789;23;20415;-78
2022/09/20 06:17:38;;;;;;;4.90;2.27;;;;;;;6.95;100.00;96601.53;6128843;23;20504;-77
2022/09/20 06:20:28;;;;;;;6.70;2.73;;;;;;;7.16;100.00;96641.28;6154600;23;20793;-77
2022/09/20 06:22:58;;;;;;;4.83;2.70;;;;;;;7.22;100.00;96656.69;6154546;23;20408;-77
2022/09/20 06:25:38;;;;;;;4.87;3.13;;;;;;;7.24;100.00;96637.97;6154864;23;20407;-78
2022/09/20 06:28:18;;;;;;;8.53;2.20;;;;;;;7.24;100.00;96651.13;6134022;23;20443;-78
2022/09/20 06:30:48;;;;;;;3.00;2.27;;;;;;;7.11;100.00;96650.84;6130773;23;20487;-78
2022/09/20 06:33:27;;;;;;;5.37;2.73;;;;;;;6.94;100.00;96611.25;6133138;23;20399;-78
2022/09/20 06:42:52;;;;;;;8.30;4.23;;;;;;;7.00;100.00;96628.47;6068029;23;20391;-78
2022/09/20 06:45:19;;;;;;;4.20;3.33;;;;;;;7.23;100.00;96645.09;6068514;23;20505;-78
2022/09/20 06:47:45;;;;;;;7.83;4.37;;;;;;;6.75;100.00;96581.69;6114370;23;20462;-78
2022/09/20 06:50:16;;;;;;;6.00;2.40;;;;;;;7.14;100.00;96630.31;6133291;23;20446;-78
2022/09/20 06:52:44;;;;;;;6.30;2.80;;;;;;;7.28;100.00;96650.22;6108754;23;20490;-78
2022/09/20 06:55:27;;;;;;;4.37;3.20;;;;;;;7.10;100.00;96628.28;6132339;23;20467;-78
2022/09/20 06:57:55;;;;;;;8.63;3.50;;;;;;;7.22;100.00;96637.50;6112990;23;20423;-78
2022/09/20 07:00:25;;;;;;;7.00;4.33;;;;;;;7.19;100.00;96622.28;6138293;23;20873;-78
2022/09/20 07:02:52;;;;;;;9.37;4.80;;;;;;;7.03;100.00;96612.09;6139348;23;20924;-78
2022/09/20 07:05:20;;;;;;;3.67;3.10;;;;;;;7.25;100.00;96627.16;6137551;23;20412;-78
2022/09/20 07:07:47;;;;;;;10.37;4.27;;;;;;;7.30;100.00;96621.00;6136168;23;20459;-78
2022/09/20 07:10:14;;;;;;;4.33;3.10;;;;;;;7.53;100.00;96664.66;6135114;23;20395;-78
2022/09/20 07:12:41;;;;;;;4.20;2.70;;;;;;;7.37;100.00;96626.63;6134928;23;20408;-78
2022/09/20 07:15:08;;;;;;;3.07;2.80;;;;;;;7.37;100.00;96653.72;6138274;23;20416;-78
2022/09/20 07:17:35;;;;;;;3.07;2.50;;;;;;;7.03;100.00;96606.06;6161159;23;20419;-78
2022/09/20 07:20:03;;;;;;;3.30;2.07;;;;;;;7.47;100.00;96662.44;6112881;23;20403;-77
2022/09/20 07:22:30;;;;;;;8.20;3.87;;;;;;;7.37;100.00;96648.44;6111714;23;20399;-78
2022/09/20 07:24:57;;;;;;;5.40;3.57;;;;;;;7.43;100.00;96638.59;6161905;23;20475;-78
2022/09/20 07:27:24;;;;;;;4.40;2.80;;;;;;;7.39;100.00;96616.59;6136007;23;20435;-78
2022/09/20 07:29:55;;;;;;;4.10;2.50;;;;;;;7.81;100.00;96662.72;6162062;23;20840;-78
2022/09/20 07:32:21;;;;;;;2.93;2.63;;;;;;;7.90;100.00;96673.31;6135995;23;20782;-78
2022/09/20 07:34:48;;;;;;;2.23;2.00;;;;;;;7.82;100.00;96677.41;6135507;23;20388;-78
2022/09/20 07:37:18;;;;;;;4.77;2.83;;;;;;;7.71;100.00;96640.03;6110414;23;20420;-78
2022/09/20 07:39:45;;;;;;;4.73;2.33;;;;;;;7.88;100.00;96670.97;6132930;23;20487;-78
2022/09/20 07:42:12;;;;;;;5.53;2.40;;;;;;;8.03;100.00;96677.72;6158856;23;20484;-78
2022/09/20 07:44:41;;;;;;;3.73;2.07;;;;;;;7.97;100.00;96681.53;6133023;23;20403;-78
2022/09/20 07:47:13;;;;;;;7.10;2.83;;;;;;;8.16;100.00;96684.78;6133315;23;20435;-78
2022/09/20 07:49:39;;;;;;;7.50;3.00;;;;;;;8.02;100.00;96685.94;6109203;23;20427;-78
2022/09/20 07:52:09;;;;;;;3.23;2.93;;;;;;;8.00;100.00;96689.59;6133771;23;20388;-78
2022/09/20 07:54:35;;;;;;;4.00;3.10;;;;;;;8.63;100.00;96685.19;6133094;23;20498;-78
2022/09/20 07:57:04;;;;;;;6.47;2.07;;;;;;;8.12;100.00;96628.50;6133848;23;20405;-78
2022/09/20 07:59:31;;;;;;;6.80;2.03;;;;;;;8.30;100.00;96690.75;6133220;23;20476;-78
2022/09/20 08:01:59;;;;;;;2.37;2.10;;;;;;;8.28;100.00;96700.03;6113717;23;20506;-78
2022/09/20 08:04:26;;;;;;;6.50;1.80;;;;;;;8.07;100.00;96685.78;6153481;23;20404;-77
2022/09/20 08:06:52;;;;;;;7.93;3.17;;;;;;;7.79;100.00;96643.03;6155449;23;20416;-77
2022/09/20 08:09:19;;;;;;;2.87;1.77;;;;;;;7.87;100.00;96655.44;6155336;23;20446;-75
2022/09/20 08:11:46;;;;;;;2.27;1.43;;;;;;;8.23;100.00;96690.38;6130960;23;20408;-77
2022/09/20 08:14:14;;;;;;;3.37;2.10;;;;;;;8.22;100.00;96693.31;6155273;23;20372;-77
2022/09/20 08:16:43;;;;;;;5.00;1.80;;;;;;;8.02;100.00;96660.38;6156227;23;20422;-78
2022/09/20 08:19:21;;;;;;;3.73;1.70;;;;;;;8.53;100.00;96699.38;6130018;23;20396;-77
2022/09/20 08:21:51;;;;;;;3.47;2.83;;;;;;;8.47;100.00;96700.59;6105786;23;20405;-78
2022/09/20 08:24:18;;;;;;;4.30;1.43;;;;;;;8.23;100.00;96645.59;6130106;23;20512;-78
2022/09/20 08:26:45;;;;;;;2.00;1.80;;;;;;;8.48;100.00;96667.91;6130022;23;20498;-77
2022/09/20 08:29:13;;;;;;;3.90;2.00;;;;;;;8.69;100.00;96646.28;6104954;23;20759;-77
2022/09/20 08:31:41;;;;;;;4.17;1.47;;;;;;;8.94;100.00;96697.53;6132384;23;20424;-77
2022/09/20 08:34:10;;;;;;;2.37;1.50;;;;;;;8.69;100.00;96676.06;6132989;23;20878;-78
2022/09/20 08:36:40;;;;;;;5.13;1.70;;;;;;;8.59;100.00;96655.25;6130196;23;20400;-77
2022/09/20 08:39:07;;;;;;;4.97;1.90;;;;;;;9.15;100.00;96704.56;6129413;23;20380;-78
2022/09/20 08:42:07;;;;;;;2.13;1.57;;;;;;;9.02;100.00;96712.59;6108909;23;20823;-78
2022/09/20 08:44:51;;;;;;;3.50;1.60;;;;;;;9.05;100.00;96712.00;6129327;23;20438;-79
2022/09/20 08:47:36;;;;;;;3.03;1.67;;;;;;;8.82;100.00;96698.13;6107791;23;20491;-79
2022/09/20 08:50:09;;;;;;;3.53;2.10;;;;;;;8.46;100.00;96671.94;6130101;23;20438;-79
2022/09/20 08:52:39;;;;;;;2.87;1.77;;;;;;;8.67;100.00;96695.88;6130363;23;20940;-78
2022/09/20 08:55:33;;;;;;;4.20;1.57;;;;;;;8.79;100.00;96704.75;6130121;23;20892;-78
2022/09/20 08:58:03;;;;;;;3.87;1.33;;;;;;;8.72;100.00;96669.41;6107518;23;20514;-79
2022/09/20 09:00:36;;;;;;;3.63;1.70;;;;;;;8.65;100.00;96684.88;6108976;23;20427;-78
2022/09/20 09:03:11;;;;;;;4.30;1.73;;;;;;;7.19;100.00;96517.09;6107001;23;20416;-78
2022/09/20 09:05:53;;;;;;;3.70;1.50;;;;;;;8.55;100.00;96688.56;6107111;23;20407;-78
2022/09/20 09:08:29;;;;;;;5.53;1.80;;;;;;;8.24;100.00;96712.22;6132143;23;20527;-79
2022/09/20 09:11:03;;;;;;;8.20;1.90;;;;;;;7.83;100.00;96704.50;6108705;23;20403;-80
2022/09/20 09:13:57;;;;;;;4.03;1.60;;;;;;;7.85;100.00;96712.88;6160544;23;20364;-79
2022/09/20 09:16:27;;;;;;;4.00;2.20;;;;;;;8.09;100.00;96716.00;6132356;23;20423;-79
2022/09/20 09:19:32;;;;;;;4.03;3.07;;;;;;;7.99;100.00;96688.06;6157250;23;20748;-79
2022/09/20 09:22:03;;;;;;;4.27;1.43;;;;;;;7.76;100.00;96670.72;6107807;23;20419;-79
2022/09/20 09:24:30;;;;;;;7.47;4.20;;;;;;;8.17;100.00;96722.41;6157409;23;20411;-79
2022/09/20 09:27:06;;;;;;;6.87;2.83;;;;;;;7.96;100.00;96715.00;6129860;23;20660;-78
2022/09/20 09:29:33;;;;;;;3.23;1.83;;;;;;;7.87;100.00;96713.38;6156669;23;20422;-78
2022/09/20 09:32:20;;;;;;;2.83;1.93;;;;;;;7.56;100.00;96664.06;6107732;23;20422;-78
2022/09/20 09:34:46;;;;;;;4.40;2.20;;;;;;;7.88;100.00;96688.59;6130454;23;20495;-78
2022/09/20 09:37:29;;;;;;;5.03;1.90;;;;;;;7.97;100.00;96673.66;6106960;23;20441;-78
2022/09/20 09:40:11;;;;;;;8.63;2.60;;;;;;;8.46;100.00;96719.38;6131795;23;20410;-79
2022/09/20 09:42:51;;;;;;;3.10;2.47;;;;;;;8.47;100.00;96697.19;6131930;23;20422;-79
2022/09/20 09:45:27;;;;;;;4.20;1.70;;;;;;;8.51;100.00;96712.09;6107795;23;20735;-79
2022/09/20 09:47:55;;;;;;;5.30;2.97;;;;;;;9.08;100.00;96714.00;6108387;23;20419;-79
2022/09/20 09:50:29;;;;;;;2.80;1.70;;;;;;;8.40;100.00;96588.81;6132602;23;20461;-79
2022/09/20 09:53:01;;;;;;;3.90;2.27;;;;;;;9.04;100.00;96728.91;6158730;23;20406;-79
2022/09/20 09:55:47;;;;;;;4.20;2.03;;;;;;;8.24;100.00;96697.19;6158217;23;20415;-78
2022/09/20 09:58:21;;;;;;;5.00;1.63;;;;;;;8.04;100.00;96660.84;6133501;23;20746;-79
2022/09/20 10:00:52;;;;;;;2.13;1.57;;;;;;;7.91;100.00;96661.69;6158898;23;20372;-79
2022/09/20 10:03:43;;;;;;;7.10;1.97;;;;;;;8.38;100.00;96720.84;6158560;23;20396;-79
2022/09/20 10:06:25;;;;;;;2.60;1.30;;;;;;;8.48;100.00;96719.84;6108894;23;20420;-79
2022/09/20 10:09:10;;;;;;;3.20;1.80;;;;;;;8.55;100.00;96712.28;6161006;23;20471;-79
2022/09/20 10:11:57;;;;;;;4.20;1.70;;;;;;;8.36;100.00;96715.13;6141679;23;20397;-78
2022/09/20 10:14:44;;;;;;;2.50;2.03;;;;;;;8.20;100.00;96685.72;6133882;23;20395;-78
2022/09/20 10:17:36;;;;;;;3.20;2.30;;;;;;;8.28;100.00;96671.06;6158336;23;20407;-78
2022/09/20 10:20:21;;;;;;;5.47;2.40;;;;;;;8.74;100.00;96719.94;6133210;23;20404;-78
2022/09/20 10:23:14;;;;;;;6.10;1.80;;;;;;;8.70;100.00;96713.75;6155809;23;20388;-79
2022/09/20 10:26:22;;;;;;;5.60;2.20;;;;;;;8.83;100.00;96721.56;6114154;23;20482;-79
2022/09/20 10:29:00;;;;;;;1.77;1.67;;;;;;;8.66;100.00;96720.69;6161585;23;20408;-78
2022/09/20 10:31:52;;;;;;;8.63;2.13;;;;;;;8.87;100.00;96717.22;6133747;23;20392;-79
2022/09/20 10:34:38;;;;;;;1.50;1.40;;;;;;;9.03;100.00;96722.06;6161712;23;20376;-79
2022/09/20 10:37:31;;;;;;;2.70;1.53;;;;;;;8.79;100.00;96681.03;6133727;23;20415;-79
2022/09/20 10:40:20;;;;;;;2.47;1.50;;;;;;;9.08;100.00;96690.25;6132533;23;20408;-78
2022/09/20 10:43:13;;;;;;;1.83;1.60;;;;;;;8.79;100.00;96694.22;6133451;23;20474;-79
2022/09/20 10:45:52;;;;;;;4.53;1.93;;;;;;;9.29;100.00;96719.50;6133361;23;20380;-79
2022/09/20 10:49:03;;;;;;;3.53;1.60;;;;;;;8.75;100.00;96643.19;6159654;23;20411;-78
2022/09/20 10:51:53;;;;;;;1.77;1.50;;;;;;;9.89;100.00;96724.84;6133727;23;20448;-78
2022/09/20 10:54:30;;;;;;;9.23;1.50;;;;;;;9.72;100.00;96719.53;6131434;23;20890;-78
2022/09/20 10:57:45;;;;;;;2.73;1.43;;;;;;;9.85;100.00;96715.19;6158390;23;20779;-78
2022/09/20 11:00:37;;;;;;;6.73;1.80;;;;;;;10.46;100.00;96714.06;6112327;23;20504;-79
2022/09/20 11:03:36;;;;;;;2.80;1.90;;;;;;;10.65;100.00;96718.97;6132307;23;20474;-78
2022/09/20 11:06:15;;;;;;;3.57;1.60;;;;;;;11.17;100.00;96726.69;6121285;23;20515;-78
2022/09/20 11:08:42;;;;;;;2.43;1.30;;;;;;;11.17;100.00;96706.28;6163631;23;20535;-78
2022/09/20 11:11:16;;;;;;;6.40;1.67;;;;;;;10.98;100.00;96692.69;6108011;23;20434;-79
2022/09/20 11:13:55;;;;;;;1.50;1.40;;;;;;;11.37;100.00;96704.00;6158428;23;20795;-79
2022/09/20 11:16:28;;;;;;;2.10;1.30;;;;;;;11.62;100.00;96736.69;6132949;23;20399;-79
2022/09/20 11:19:09;;;;;;;1.67;1.23;;;;;;;11.42;100.00;96736.34;6132276;23;20382;-78
2022/09/20 11:21:45;;;;;;;3.13;1.37;;;;;;;11.77;100.00;96736.91;6108481;23;20490;-79
2022/09/20 11:24:11;;;;;;;2.93;1.30;;;;;;;11.03;100.00;96737.50;6131365;23;20766;-79
2022/09/20 11:26:50;;;;;;;2.33;1.13;;;;;;;11.44;100.00;96743.97;6131580;23;20432;-79
2022/09/20 11:29:25;;;;;;;3.00;1.60;;;;;;;12.20;100.00;96746.41;6131071;23;20428;-79
2022/09/20 11:31:57;;;;;;;2.90;1.53;;;;;;;11.28;100.00;96674.16;6131213;23;20471;-79
2022/09/20 11:34:36;;;;;;;3.13;1.43;;;;;;;11.95;100.00;96744.75;6107068;23;20396;-79
2022/09/20 11:37:03;;;;;;;1.33;1.20;;;;;;;11.71;100.00;96722.28;6107280;23;20518;-79
2022/09/20 11:39:41;;;;;;;1.57;1.13;;;;;;;10.48;100.00;96658.22;6131543;23;20811;-78
2022/09/20 11:42:15;;;;;;;3.33;1.50;;;;;;;10.71;100.00;96735.44;6157594;23;20770;-78
2022/09/20 11:44:42;;;;;;;1.83;1.30;;;;;;;10.32;100.00;96710.81;6107439;23;20730;-78
2022/09/20 11:47:13;;;;;;;3.23;2.50;;;;;;;10.62;100.00;96738.13;6106423;23;20420;-78
2022/09/20 11:50:35;;;;;;;1.70;1.60;;;;;;;11.62;100.00;96750.72;6157565;23;20428;-79
2022/09/20 11:53:14;;;;;;;2.07;1.50;;;;;;;11.44;100.00;96736.81;6106940;23;20434;-78
2022/09/20 11:56:04;;;;;;;1.63;1.40;;;;;;;11.73;100.00;96740.50;6133986;23;20463;-79
2022/09/20 11:58:47;;;;;;;1.60;1.30;;;;;;;11.14;100.00;96725.47;6133828;23;20496;-79
2022/09/20 12:01:24;;;;;;;1.40;1.30;;;;;;;11.11;100.00;96693.56;6133926;23;20818;-78
2022/09/20 12:03:58;;;;;;;3.40;1.43;;;;;;;11.47;100.00;96712.31;6134532;23;20402;-78
2022/09/20 12:06:46;;;;;;;1.50;1.10;;;;;;;12.75;100.00;96725.88;6114448;23;20423;-79
2022/09/20 12:09:31;;;;;;;3.53;1.30;;;;;;;12.69;100.00;96720.78;6135664;23;20532;-79
2022/09/20 12:12:11;;;;;;;5.23;1.40;;;;;;;12.79;100.00;96698.34;6137262;23;20376;-79
2022/09/20 12:14:38;;;;;;;2.80;1.40;;;;;;;13.00;100.00;96704.31;6138261;23;20862;-79
2022/09/20 12:17:05;;;;;;;1.20;1.10;;;;;;;13.10;100.00;96712.97;6137588;23;20428;-79
2022/09/20 12:19:32;;;;;;;2.20;1.20;;;;;;;13.49;100.00;96746.81;6110916;23;20392;-79
2022/09/20 12:21:58;;;;;;;2.90;1.30;;;;;;;12.90;100.00;96743.78;6134105;23;20867;-79
2022/09/20 12:24:38;;;;;;;1.23;0.80;;;;;;;12.08;100.00;96741.81;6110842;23;20466;-78
2022/09/20 12:27:26;;;;;;;1.53;0.90;;;;;;;11.61;100.00;96748.38;6133585;23;20420;-79
2022/09/20 12:30:04;;;;;;;2.40;1.20;;;;;;;11.11;100.00;96743.84;6132776;23;20439;-79
2022/09/20 12:32:43;;;;;;;2.50;1.30;;;;;;;10.85;100.00;96736.03;6132436;23;20812;-78
2022/09/20 12:35:52;;;;;;;2.30;1.47;;;;;;;10.71;100.00;96733.59;6128243;23;20396;-77
2022/09/20 12:38:19;;;;;;;4.50;1.60;;;;;;;10.80;100.00;96726.38;6125734;23;20399;-77